Time;durP1;ratioP1;P1;durP2;ratioP2;P2;SDS_P1;SDS_P2;PMS_P1;PMS_P2;Temp;Humidity;BMP_temperature;BMP_pressure;BME280_temperature;BME280_humidity;BME280_pressure;Samples;Min_cycle;Max_cycle;Signal;HPM_P1;HPM_P2
2023/07/07 00:02:03;;;;;;;8.20;4.43;;;;;;;;;;5093730;28;20479;-73
2023/07/07 00:04:30;;;;;;;8.30;4.47;;;;;;;;;;5093349;28;20454;-73
2023/07/07 00:06:57;;;;;;;8.17;4.47;;;;;;;;;;5093372;28;20439;-73
2023/07/07 00:09:25;;;;;;;6.80;4.53;;;;;;;;;;5093035;28;20507;-73
2023/07/07 00:11:52;;;;;;;5.60;4.03;;;;;;;;;;5092981;28;20475;-73
2023/07/07 00:14:21;;;;;;;5.97;4.23;;;;;;;;;;5093195;28;20454;-73
2023/07/07 00:16:48;;;;;;;6.87;5.03;;;;;;;;;;5093182;28;20494;-73
2023/07/07 00:19:16;;;;;;;6.10;4.53;;;;;;;;;;5092587;28;20451;-73
2023/07/07 00:21:44;;;;;;;8.20;5.50;;;;;;;;;;5093383;28;20598;-73
2023/07/07 00:24:11;;;;;;;7.00;4.70;;;;;;;;;;5092773;28;20454;-73
2023/07/07 00:26:38;;;;;;;7.50;4.60;;;;;;;;;;5093079;28;20450;-73
2023/07/07 00:29:07;;;;;;;6.43;4.27;;;;;;;;;;5093054;28;20446;-73
2023/07/07 00:31:35;;;;;;;5.73;4.50;;;;;;;;;;5093386;28;20506;-73
2023/07/07 00:34:02;;;;;;;6.07;5.10;;;;;;;;;;5093047;28;20462;-73
2023/07/07 00:36:29;;;;;;;8.00;4.63;;;;;;;;;;5093041;28;20478;-73
2023/07/07 00:38:56;;;;;;;6.90;5.10;;;;;;;;;;5092912;28;20451;-73
2023/07/07 00:41:24;;;;;;;7.40;4.77;;;;;;;;;;5093324;28;20470;-73
2023/07/07 00:44:01;;;;;;;7.17;4.60;;;;;;;;;;5093013;28;20961;-73
2023/07/07 00:46:28;;;;;;;5.93;5.03;;;;;;;;;;5093340;28;20474;-73
2023/07/07 00:48:57;;;;;;;6.37;4.40;;;;;;;;;;5092883;28;20486;-73
2023/07/07 00:51:25;;;;;;;7.83;5.27;;;;;;;;;;5092729;28;20478;-73
2023/07/07 00:53:53;;;;;;;7.70;4.23;;;;;;;;;;5092952;28;20458;-73
2023/07/07 00:56:22;;;;;;;5.57;4.20;;;;;;;;;;5092743;28;20873;-73
2023/07/07 00:58:49;;;;;;;6.00;5.10;;;;;;;;;;5092888;28;20457;-73
2023/07/07 01:01:17;;;;;;;6.03;4.63;;;;;;;;;;5092672;28;20990;-73
2023/07/07 01:03:47;;;;;;;10.53;6.07;;;;;;;;;;5092673;28;20462;-73
2023/07/07 01:06:17;;;;;;;6.40;4.80;;;;;;;;;;5092881;28;20454;-73
2023/07/07 01:08:46;;;;;;;6.60;4.77;;;;;;;;;;5092437;28;20450;-73
2023/07/07 01:11:13;;;;;;;7.00;5.13;;;;;;;;;;5092666;28;20474;-73
2023/07/07 01:13:40;;;;;;;4.93;4.00;;;;;;;;;;5092820;28;20461;-73
2023/07/07 01:16:10;;;;;;;6.83;5.27;;;;;;;;;;5092825;28;20939;-73
2023/07/07 01:18:42;;;;;;;7.23;5.50;;;;;;;;;;5092429;28;20447;-73
2023/07/07 01:21:12;;;;;;;6.00;4.67;;;;;;;;;;5092733;28;20495;-73
2023/07/07 01:23:57;;;;;;;10.40;5.30;;;;;;;;;;5092646;28;20450;-73
2023/07/07 01:26:37;;;;;;;5.47;4.53;;;;;;;;;;5092209;28;21002;-73
2023/07/07 01:29:14;;;;;;;7.17;4.93;;;;;;;;;;5092474;28;20446;-73
2023/07/07 01:31:44;;;;;;;9.67;4.90;;;;;;;;;;5093411;28;20480;-72
2023/07/07 01:34:12;;;;;;;7.53;5.60;;;;;;;;;;5096560;28;20905;-72
2023/07/07 01:36:39;;;;;;;9.10;5.87;;;;;;;;;;5095902;28;20479;-72
2023/07/07 01:39:07;;;;;;;7.50;5.80;;;;;;;;;;5096046;28;20496;-73
2023/07/07 01:41:37;;;;;;;7.50;6.00;;;;;;;;;;5096220;28;20547;-72
2023/07/07 01:44:07;;;;;;;6.27;5.20;;;;;;;;;;5095935;28;20453;-72
2023/07/07 01:46:38;;;;;;;7.70;5.83;;;;;;;;;;5095947;28;20455;-73
2023/07/07 01:49:09;;;;;;;7.40;4.80;;;;;;;;;;5095724;28;20454;-73
2023/07/07 01:51:41;;;;;;;7.23;4.90;;;;;;;;;;5095664;28;20470;-72
2023/07/07 01:54:11;;;;;;;10.00;5.70;;;;;;;;;;5095900;28;20446;-72
2023/07/07 01:56:39;;;;;;;8.07;5.93;;;;;;;;;;5095693;28;20516;-72
2023/07/07 01:59:07;;;;;;;7.93;5.43;;;;;;;;;;5095804;28;20451;-72
2023/07/07 02:01:34;;;;;;;9.10;5.53;;;;;;;;;;5095682;28;20470;-72
2023/07/07 02:04:01;;;;;;;8.90;4.97;;;;;;;;;;5095586;28;20455;-72
2023/07/07 02:06:29;;;;;;;9.40;5.80;;;;;;;;;;5095639;28;20460;-72
2023/07/07 02:08:56;;;;;;;9.10;5.20;;;;;;;;;;5095396;28;20451;-72
2023/07/07 02:11:23;;;;;;;7.70;4.67;;;;;;;;;;5095411;28;20978;-72
2023/07/07 02:13:51;;;;;;;10.23;5.27;;;;;;;;;;5095945;28;20527;-72
2023/07/07 02:16:18;;;;;;;7.70;5.20;;;;;;;;;;5095334;28;20840;-72
2023/07/07 02:18:48;;;;;;;6.87;4.80;;;;;;;;;;5095133;28;20825;-72
2023/07/07 02:21:16;;;;;;;9.60;5.77;;;;;;;;;;5095044;28;21026;-73
2023/07/07 02:23:45;;;;;;;5.30;4.80;;;;;;;;;;5095226;28;20447;-72
2023/07/07 02:26:13;;;;;;;7.77;5.40;;;;;;;;;;5095011;28;20474;-72
2023/07/07 02:28:40;;;;;;;7.40;5.10;;;;;;;;;;5094968;28;20865;-72
2023/07/07 02:31:07;;;;;;;7.17;4.90;;;;;;;;;;5095324;28;20471;-73
2023/07/07 02:33:34;;;;;;;6.50;4.90;;;;;;;;;;5095009;28;20462;-72
2023/07/07 02:36:02;;;;;;;6.97;5.27;;;;;;;;;;5095178;28;20970;-72
2023/07/07 02:38:30;;;;;;;10.70;6.20;;;;;;;;;;5094663;28;20493;-73
2023/07/07 02:40:58;;;;;;;6.13;4.97;;;;;;;;;;5094781;28;20481;-73
2023/07/07 02:43:25;;;;;;;8.40;5.20;;;;;;;;;;5094628;28;20450;-73
2023/07/07 02:45:53;;;;;;;7.60;5.03;;;;;;;;;;5094778;28;20969;-73
2023/07/07 02:48:20;;;;;;;8.20;5.30;;;;;;;;;;5094356;28;20457;-73
2023/07/07 02:50:55;;;;;;;7.70;5.20;;;;;;;;;;5094624;28;20478;-73
2023/07/07 02:53:22;;;;;;;6.93;4.93;;;;;;;;;;5094722;28;20473;-73
2023/07/07 02:55:49;;;;;;;8.80;5.60;;;;;;;;;;5094741;28;20454;-73
2023/07/07 02:58:17;;;;;;;6.97;5.17;;;;;;;;;;5094496;28;20482;-73
2023/07/07 03:00:45;;;;;;;7.73;5.67;;;;;;;;;;5094479;28;20474;-72
2023/07/07 03:03:12;;;;;;;7.50;5.80;;;;;;;;;;5094314;28;20508;-73
2023/07/07 03:05:39;;;;;;;10.80;5.23;;;;;;;;;;5094396;28;20934;-72
2023/07/07 03:08:06;;;;;;;9.80;4.73;;;;;;;;;;5094289;28;20443;-72
2023/07/07 03:10:33;;;;;;;8.47;5.67;;;;;;;;;;5094166;28;20478;-72
2023/07/07 03:13:00;;;;;;;5.47;4.33;;;;;;;;;;5094230;28;20457;-73
2023/07/07 03:15:38;;;;;;;6.03;4.33;;;;;;;;;;5094081;28;20451;-72
2023/07/07 03:18:05;;;;;;;7.00;5.33;;;;;;;;;;5093310;28;21002;-73
2023/07/07 03:20:32;;;;;;;6.90;5.30;;;;;;;;;;5093133;28;20489;-72
2023/07/07 03:22:59;;;;;;;6.63;4.87;;;;;;;;;;5093888;28;20446;-73
2023/07/07 03:25:27;;;;;;;7.90;5.37;;;;;;;;;;5093062;28;20965;-73
2023/07/07 03:27:54;;;;;;;6.07;4.73;;;;;;;;;;5093316;28;20954;-73
2023/07/07 03:30:21;;;;;;;5.90;4.80;;;;;;;;;;5093525;28;20503;-72
2023/07/07 03:32:49;;;;;;;7.63;4.87;;;;;;;;;;5093310;28;20454;-72
2023/07/07 03:35:16;;;;;;;7.40;4.97;;;;;;;;;;5093319;28;20457;-72
2023/07/07 03:37:43;;;;;;;7.27;5.07;;;;;;;;;;5092829;28;20478;-73
2023/07/07 03:40:11;;;;;;;9.10;5.23;;;;;;;;;;5092836;28;20544;-73
2023/07/07 03:42:38;;;;;;;6.50;5.50;;;;;;;;;;5093179;28;20443;-73
2023/07/07 03:45:05;;;;;;;9.97;6.50;;;;;;;;;;5093145;28;20447;-73
2023/07/07 03:47:32;;;;;;;10.90;7.13;;;;;;;;;;5092836;28;20459;-73
2023/07/07 03:50:01;;;;;;;8.77;6.00;;;;;;;;;;5092874;28;20795;-72
2023/07/07 03:52:28;;;;;;;6.90;5.00;;;;;;;;;;5092896;28;20462;-73
2023/07/07 03:54:55;;;;;;;7.83;4.83;;;;;;;;;;5092357;28;20822;-73
2023/07/07 03:57:22;;;;;;;8.30;4.30;;;;;;;;;;5073635;28;20487;-73
2023/07/07 03:59:50;;;;;;;8.33;4.93;;;;;;;;;;5072327;28;20451;-73
2023/07/07 04:02:17;;;;;;;8.20;5.23;;;;;;;;;;5072134;28;20451;-73
2023/07/07 04:04:45;;;;;;;6.70;4.77;;;;;;;;;;5072431;28;20455;-73
2023/07/07 04:07:13;;;;;;;9.40;4.20;;;;;;;;;;5071994;28;20487;-73
2023/07/07 04:09:40;;;;;;;4.97;3.90;;;;;;;;;;5072478;28;20948;-73
2023/07/07 04:12:11;;;;;;;6.40;4.50;;;;;;;;;;5072236;28;20955;-73
2023/07/07 04:14:38;;;;;;;7.27;5.00;;;;;;;;;;5072291;28;20945;-73
2023/07/07 04:17:05;;;;;;;5.67;4.17;;;;;;;;;;5071957;28;20478;-73
2023/07/07 04:19:32;;;;;;;6.37;4.30;;;;;;;;;;5071813;28;20470;-73
2023/07/07 04:22:00;;;;;;;10.17;4.70;;;;;;;;;;5072297;28;20471;-73
2023/07/07 04:24:28;;;;;;;10.63;5.20;;;;;;;;;;5071585;28;20452;-73
2023/07/07 04:26:55;;;;;;;5.30;4.80;;;;;;;;;;5072032;28;20455;-74
2023/07/07 04:29:22;;;;;;;5.63;4.50;;;;;;;;;;5072166;28;20444;-73
2023/07/07 04:31:49;;;;;;;6.83;4.83;;;;;;;;;;5071863;28;20471;-73
2023/07/07 04:34:17;;;;;;;7.60;4.60;;;;;;;;;;5072119;28;20963;-73
2023/07/07 04:36:44;;;;;;;8.87;4.33;;;;;;;;;;5072602;28;20533;-73
2023/07/07 04:39:11;;;;;;;5.50;4.60;;;;;;;;;;5088416;28;20489;-73
2023/07/07 04:41:40;;;;;;;7.53;4.80;;;;;;;;;;5091952;28;20504;-71
2023/07/07 04:44:07;;;;;;;5.50;4.60;;;;;;;;;;5092292;28;20905;-71
2023/07/07 04:46:36;;;;;;;5.13;4.60;;;;;;;;;;5092191;28;20871;-74
2023/07/07 04:49:06;;;;;;;4.80;4.30;;;;;;;;;;5091741;28;20516;-72
2023/07/07 04:51:33;;;;;;;5.83;4.50;;;;;;;;;;5091785;28;20470;-72
2023/07/07 04:54:01;;;;;;;6.90;5.10;;;;;;;;;;5091895;28;20502;-72
2023/07/07 04:56:28;;;;;;;6.90;3.83;;;;;;;;;;5091995;28;20812;-72
2023/07/07 04:58:58;;;;;;;6.00;5.20;;;;;;;;;;5091933;28;20916;-73
2023/07/07 05:01:26;;;;;;;6.20;4.70;;;;;;;;;;5091707;28;20471;-73
2023/07/07 05:03:54;;;;;;;6.63;4.30;;;;;;;;;;5091859;28;20940;-73
2023/07/07 05:06:21;;;;;;;4.60;4.20;;;;;;;;;;5093800;28;20454;-74
2023/07/07 05:08:49;;;;;;;4.37;3.53;;;;;;;;;;5095430;28;20455;-74
2023/07/07 05:11:17;;;;;;;5.50;4.47;;;;;;;;;;5095733;28;20469;-74
2023/07/07 05:13:46;;;;;;;4.33;3.83;;;;;;;;;;5095757;28;20454;-74
2023/07/07 05:16:17;;;;;;;5.13;4.47;;;;;;;;;;5095741;28;20482;-72
2023/07/07 05:18:44;;;;;;;7.70;5.07;;;;;;;;;;5095565;28;20489;-72
2023/07/07 05:21:12;;;;;;;6.03;4.53;;;;;;;;;;5095263;28;20485;-72
2023/07/07 05:23:39;;;;;;;4.50;4.10;;;;;;;;;;5094960;28;21072;-73
2023/07/07 05:26:06;;;;;;;5.07;4.53;;;;;;;;;;5094813;28;20450;-73
2023/07/07 05:28:34;;;;;;;8.70;4.73;;;;;;;;;;5094683;28;20441;-71
2023/07/07 05:31:01;;;;;;;8.43;5.00;;;;;;;;;;5095083;28;20469;-74
2023/07/07 05:33:30;;;;;;;5.07;4.43;;;;;;;;;;5094564;28;20453;-74
2023/07/07 05:35:58;;;;;;;6.70;4.43;;;;;;;;;;5074948;28;20447;-77
2023/07/07 05:38:26;;;;;;;5.77;5.17;;;;;;;;;;5075267;28;20843;-77
2023/07/07 05:40:53;;;;;;;5.10;3.90;;;;;;;;;;5075140;28;20979;-76
2023/07/07 05:43:21;;;;;;;7.20;4.50;;;;;;;;;;5074705;28;20491;-77
2023/07/07 05:45:48;;;;;;;4.77;4.37;;;;;;;;;;5074487;28;20786;-75
2023/07/07 05:48:16;;;;;;;7.67;4.57;;;;;;;;;;5075109;28;20434;-76
2023/07/07 05:50:45;;;;;;;5.00;4.50;;;;;;;;;;5073558;28;20467;-76
2023/07/07 05:53:13;;;;;;;5.20;4.40;;;;;;;;;;5073958;28;20971;-76
2023/07/07 05:55:46;;;;;;;4.60;4.20;;;;;;;;;;5074069;28;20546;-75
2023/07/07 05:58:13;;;;;;;4.80;4.40;;;;;;;;;;5073971;28;20473;-74
2023/07/07 06:00:40;;;;;;;3.80;3.50;;;;;;;;;;5073238;28;20994;-75
2023/07/07 06:03:08;;;;;;;5.27;4.13;;;;;;;;;;5073994;28;20451;-74
2023/07/07 06:05:35;;;;;;;5.63;3.87;;;;;;;;;;5074741;28;20529;-75
2023/07/07 06:08:04;;;;;;;7.00;3.90;;;;;;;;;;5074757;28;20459;-75
2023/07/07 06:10:32;;;;;;;5.10;4.60;;;;;;;;;;5074313;28;20514;-75
2023/07/07 06:13:03;;;;;;;5.47;4.97;;;;;;;;;;5073710;28;20784;-74
2023/07/07 06:15:30;;;;;;;4.77;4.13;;;;;;;;;;5072860;28;20496;-74
2023/07/07 06:17:57;;;;;;;5.23;3.77;;;;;;;;;;5072286;28;20439;-75
2023/07/07 06:20:24;;;;;;;5.60;4.50;;;;;;;;;;5073336;28;20482;-75
2023/07/07 06:22:53;;;;;;;7.30;5.83;;;;;;;;;;5073799;28;20827;-76
2023/07/07 06:25:22;;;;;;;4.40;4.00;;;;;;;;;;5073427;28;20913;-74
2023/07/07 06:27:49;;;;;;;4.30;3.90;;;;;;;;;;5073898;28;20900;-77
2023/07/07 06:30:16;;;;;;;4.67;4.10;;;;;;;;;;5074358;28;20463;-75
2023/07/07 06:32:43;;;;;;;3.90;3.50;;;;;;;;;;5074337;28;20431;-74
2023/07/07 06:35:10;;;;;;;4.43;4.03;;;;;;;;;;5074239;28;20466;-75
2023/07/07 06:37:37;;;;;;;4.10;3.80;;;;;;;;;;5074163;28;20459;-75
2023/07/07 06:40:04;;;;;;;4.30;3.90;;;;;;;;;;5074054;28;20487;-75
2023/07/07 06:42:33;;;;;;;5.70;4.40;;;;;;;;;;5074134;28;20459;-75
2023/07/07 06:45:00;;;;;;;6.57;4.00;;;;;;;;;;5074156;28;20490;-75
2023/07/07 06:47:27;;;;;;;5.10;4.60;;;;;;;;;;5073957;28;20458;-75
2023/07/07 06:49:55;;;;;;;5.87;4.33;;;;;;;;;;5073856;28;20447;-75
2023/07/07 06:52:22;;;;;;;4.80;4.30;;;;;;;;;;5074028;28;20458;-74
2023/07/07 06:54:49;;;;;;;4.70;4.17;;;;;;;;;;5073979;28;20454;-75
2023/07/07 06:57:16;;;;;;;4.57;4.00;;;;;;;;;;5073537;28;20454;-75
2023/07/07 06:59:44;;;;;;;9.07;4.07;;;;;;;;;;5073444;28;20479;-74
2023/07/07 07:02:13;;;;;;;4.33;3.77;;;;;;;;;;5073580;28;20933;-75
2023/07/07 07:04:40;;;;;;;5.93;4.43;;;;;;;;;;5073610;28;20826;-75
2023/07/07 07:07:07;;;;;;;4.90;3.80;;;;;;;;;;5073754;28;20256;-75
2023/07/07 07:09:34;;;;;;;5.70;4.90;;;;;;;;;;5073489;28;20216;-75
2023/07/07 07:12:01;;;;;;;9.10;4.30;;;;;;;;;;5073524;28;20241;-75
2023/07/07 07:14:29;;;;;;;4.70;3.80;;;;;;;;;;5073245;28;20223;-74
2023/07/07 07:16:57;;;;;;;5.10;4.60;;;;;;;;;;5073190;28;20212;-75
2023/07/07 07:19:24;;;;;;;5.00;3.70;;;;;;;;;;5073290;28;20229;-76
2023/07/07 07:21:51;;;;;;;6.63;3.90;;;;;;;;;;5073316;28;20236;-75
2023/07/07 07:24:19;;;;;;;4.93;3.77;;;;;;;;;;5072996;28;20209;-76
2023/07/07 07:26:46;;;;;;;5.03;4.30;;;;;;;;;;5073289;28;20212;-76
2023/07/07 07:29:14;;;;;;;5.23;4.73;;;;;;;;;;5072306;28;20571;-76
2023/07/07 07:31:41;;;;;;;4.50;4.10;;;;;;;;;;5072999;28;20479;-76
2023/07/07 07:34:23;;;;;;;5.20;4.70;;;;;;;;;;5073184;28;20451;-76
2023/07/07 07:36:50;;;;;;;4.30;3.93;;;;;;;;;;5072925;28;20653;-76
2023/07/07 07:39:17;;;;;;;5.53;3.67;;;;;;;;;;5072955;28;20697;-76
2023/07/07 07:41:46;;;;;;;7.83;4.07;;;;;;;;;;5072771;28;20701;-76
2023/07/07 07:44:13;;;;;;;4.40;4.00;;;;;;;;;;5072878;28;20212;-76
2023/07/07 07:46:40;;;;;;;6.57;4.47;;;;;;;;;;5072852;28;20559;-76
2023/07/07 07:49:08;;;;;;;5.73;3.80;;;;;;;;;;5072851;28;20584;-76
2023/07/07 07:51:38;;;;;;;5.77;4.50;;;;;;;;;;5072823;28;20225;-76
2023/07/07 07:54:06;;;;;;;5.03;4.40;;;;;;;;;;5072741;28;20630;-76
2023/07/07 07:56:33;;;;;;;4.00;3.70;;;;;;;;;;5072829;28;20324;-76
2023/07/07 07:59:00;;;;;;;4.87;4.47;;;;;;;;;;5072671;28;20306;-76
2023/07/07 08:01:27;;;;;;;4.57;4.10;;;;;;;;;;5072673;28;20724;-76
2023/07/07 08:03:54;;;;;;;4.23;3.83;;;;;;;;;;5072642;28;20216;-76
2023/07/07 08:06:21;;;;;;;4.47;4.07;;;;;;;;;;5072456;28;20208;-76
2023/07/07 08:08:50;;;;;;;4.50;4.10;;;;;;;;;;5072350;28;20205;-76
2023/07/07 08:11:20;;;;;;;3.67;3.37;;;;;;;;;;5072474;28;20236;-76
2023/07/07 08:13:47;;;;;;;5.00;4.60;;;;;;;;;;5072750;28;20282;-76
2023/07/07 08:16:14;;;;;;;13.77;4.33;;;;;;;;;;5072247;28;20241;-76
2023/07/07 08:18:41;;;;;;;3.87;3.40;;;;;;;;;;5072477;28;20693;-76
2023/07/07 08:21:08;;;;;;;4.30;3.90;;;;;;;;;;5072016;28;20237;-76
2023/07/07 08:23:35;;;;;;;4.17;3.77;;;;;;;;;;5072660;28;20576;-76
2023/07/07 08:26:04;;;;;;;5.77;4.67;;;;;;;;;;5072397;28;20474;-76
2023/07/07 08:28:31;;;;;;;4.13;3.80;;;;;;;;;;5072526;28;20197;-76
2023/07/07 08:30:58;;;;;;;5.80;3.90;;;;;;;;;;5072342;28;20971;-76
2023/07/07 08:33:25;;;;;;;3.97;3.57;;;;;;;;;;5072333;28;20855;-76
2023/07/07 08:35:52;;;;;;;4.20;3.80;;;;;;;;;;5071983;28;20922;-76
2023/07/07 08:38:19;;;;;;;4.77;3.93;;;;;;;;;;5072247;28;20828;-76
2023/07/07 08:40:47;;;;;;;4.70;4.23;;;;;;;;;;5073556;28;20496;-76
2023/07/07 08:43:17;;;;;;;4.43;4.03;;;;;;;;;;5076435;28;20787;-76
2023/07/07 08:45:48;;;;;;;4.53;4.10;;;;;;;;;;5076401;28;20447;-76
2023/07/07 08:48:21;;;;;;;4.00;3.70;;;;;;;;;;5076197;28;20435;-76
2023/07/07 08:50:51;;;;;;;4.37;3.97;;;;;;;;;;5075902;28;20471;-76
2023/07/07 08:53:41;;;;;;;4.13;3.63;;;;;;;;;;5076282;28;20478;-73
2023/07/07 08:56:14;;;;;;;4.40;4.00;;;;;;;;;;5075910;28;20461;-73
2023/07/07 08:58:46;;;;;;;4.00;3.60;;;;;;;;;;5075329;28;20466;-73
2023/07/07 09:01:30;;;;;;;4.50;3.63;;;;;;;;;;5075704;28;20475;-73
2023/07/07 09:04:06;;;;;;;4.77;4.37;;;;;;;;;;5075815;28;20919;-73
2023/07/07 09:06:41;;;;;;;4.47;4.07;;;;;;;;;;5075563;28;20461;-73
2023/07/07 09:09:13;;;;;;;4.30;3.73;;;;;;;;;;5075811;28;20901;-73
2023/07/07 09:11:46;;;;;;;4.87;3.30;;;;;;;;;;5075543;28;20479;-73
2023/07/07 09:14:15;;;;;;;4.67;4.27;;;;;;;;;;5075620;28;20962;-73
2023/07/07 09:16:44;;;;;;;4.67;4.23;;;;;;;;;;5075330;28;20469;-73
2023/07/07 09:19:13;;;;;;;6.03;3.80;;;;;;;;;;5075274;28;20474;-73
2023/07/07 09:21:42;;;;;;;3.83;3.50;;;;;;;;;;5074980;28;20474;-73
2023/07/07 09:24:14;;;;;;;5.03;4.33;;;;;;;;;;5074814;28;20462;-74
2023/07/07 09:26:41;;;;;;;5.43;3.93;;;;;;;;;;5075180;28;20451;-73
2023/07/07 09:29:16;;;;;;;4.10;3.73;;;;;;;;;;5075125;28;20866;-73
2023/07/07 09:31:44;;;;;;;3.67;3.37;;;;;;;;;;5075122;28;20485;-73
2023/07/07 09:34:13;;;;;;;5.40;4.20;;;;;;;;;;5075183;28;20451;-73
2023/07/07 09:36:43;;;;;;;4.73;4.27;;;;;;;;;;5074948;28;20827;-73
2023/07/07 09:39:21;;;;;;;7.90;4.50;;;;;;;;;;5074934;28;21059;-73
2023/07/07 09:41:55;;;;;;;4.80;4.40;;;;;;;;;;5074964;28;20474;-73
2023/07/07 09:44:43;;;;;;;4.50;4.10;;;;;;;;;;5075076;28;20454;-73
2023/07/07 09:47:19;;;;;;;3.77;3.47;;;;;;;;;;5070233;28;20459;-73
2023/07/07 09:49:49;;;;;;;5.00;3.70;;;;;;;;;;5074648;28;20450;-73
2023/07/07 09:52:24;;;;;;;3.97;3.60;;;;;;;;;;5073739;28;21033;-73
2023/07/07 09:54:52;;;;;;;4.73;3.43;;;;;;;;;;5075005;28;20865;-73
2023/07/07 09:57:23;;;;;;;4.30;3.87;;;;;;;;;;5074550;28;20455;-73
2023/07/07 09:59:52;;;;;;;5.20;4.17;;;;;;;;;;5074730;28;20479;-73
2023/07/07 10:02:23;;;;;;;6.07;4.73;;;;;;;;;;5074919;28;20816;-73
2023/07/07 10:04:51;;;;;;;8.73;4.33;;;;;;;;;;5074699;28;20451;-73
2023/07/07 10:07:19;;;;;;;3.87;3.53;;;;;;;;;;5074747;28;20451;-73
2023/07/07 10:09:46;;;;;;;6.87;3.60;;;;;;;;;;5074841;28;20927;-73
2023/07/07 10:12:15;;;;;;;4.50;4.07;;;;;;;;;;5074829;28;20957;-73
2023/07/07 10:14:42;;;;;;;5.53;4.13;;;;;;;;;;5074458;28;20447;-73
2023/07/07 10:17:17;;;;;;;6.80;4.43;;;;;;;;;;5074637;28;20915;-73
2023/07/07 10:19:46;;;;;;;4.20;3.80;;;;;;;;;;5073976;28;20499;-73
2023/07/07 10:22:14;;;;;;;6.30;4.57;;;;;;;;;;5074331;28;20458;-73
2023/07/07 10:24:42;;;;;;;4.40;4.00;;;;;;;;;;5073821;28;20460;-73
2023/07/07 10:27:11;;;;;;;4.73;4.10;;;;;;;;;;5074384;28;20448;-73
2023/07/07 10:29:39;;;;;;;4.90;4.40;;;;;;;;;;5074210;28;20447;-73
2023/07/07 10:32:07;;;;;;;3.90;3.47;;;;;;;;;;5074240;28;20562;-73
2023/07/07 10:34:39;;;;;;;6.03;4.93;;;;;;;;;;5073828;28;20454;-73
2023/07/07 10:37:16;;;;;;;7.07;5.23;;;;;;;;;;5074234;28;20439;-73
2023/07/07 10:39:43;;;;;;;4.97;4.47;;;;;;;;;;5073933;28;20853;-73
2023/07/07 10:42:10;;;;;;;5.43;4.80;;;;;;;;;;5074275;28;20443;-73
2023/07/07 10:44:37;;;;;;;5.73;4.30;;;;;;;;;;5073761;28;20893;-73
2023/07/07 10:47:05;;;;;;;5.07;4.00;;;;;;;;;;5073740;28;20491;-73
2023/07/07 10:49:32;;;;;;;4.77;4.10;;;;;;;;;;5073657;28;20439;-73
2023/07/07 10:52:16;;;;;;;4.63;4.23;;;;;;;;;;5073758;28;20479;-73
2023/07/07 10:54:48;;;;;;;5.37;4.83;;;;;;;;;;5073914;28;20458;-73
2023/07/07 10:57:19;;;;;;;4.87;4.33;;;;;;;;;;5073748;28;20436;-73
2023/07/07 10:59:53;;;;;;;4.17;3.77;;;;;;;;;;5073640;28;20494;-73
2023/07/07 11:02:36;;;;;;;5.30;4.37;;;;;;;;;;5074017;28;20439;-73
2023/07/07 11:05:24;;;;;;;5.40;4.37;;;;;;;;;;5073557;28;20826;-73
2023/07/07 11:07:57;;;;;;;5.53;4.30;;;;;;;;;;5068558;28;20488;-73
2023/07/07 11:10:35;;;;;;;4.33;3.87;;;;;;;;;;5073372;28;20551;-73
2023/07/07 11:13:09;;;;;;;4.93;4.50;;;;;;;;;;5073568;28;20965;-73
2023/07/07 11:15:40;;;;;;;4.47;4.07;;;;;;;;;;5073545;28;20458;-73
2023/07/07 11:18:15;;;;;;;5.50;3.80;;;;;;;;;;5073150;28;20454;-73
2023/07/07 11:20:53;;;;;;;4.47;4.07;;;;;;;;;;5073018;28;20567;-73
2023/07/07 11:23:29;;;;;;;4.57;4.13;;;;;;;;;;5073632;28;20773;-73
2023/07/07 11:26:01;;;;;;;5.60;3.83;;;;;;;;;;5076453;28;20465;-73
2023/07/07 11:28:35;;;;;;;4.83;4.40;;;;;;;;;;5092708;28;20457;-74
2023/07/07 11:31:12;;;;;;;9.90;4.00;;;;;;;;;;5092470;28;20470;-73
2023/07/07 11:33:42;;;;;;;3.87;3.53;;;;;;;;;;5081462;28;20447;-74
2023/07/07 11:36:26;;;;;;;5.60;4.40;;;;;;;;;;5073147;28;20451;-73
2023/07/07 11:39:02;;;;;;;4.73;3.77;;;;;;;;;;5084291;28;20458;-73
2023/07/07 11:41:34;;;;;;;4.60;4.20;;;;;;;;;;5094484;28;20499;-73
2023/07/07 11:44:13;;;;;;;4.43;4.03;;;;;;;;;;5113449;28;20464;-74
2023/07/07 11:46:47;;;;;;;4.47;3.93;;;;;;;;;;5108821;28;20483;-74
2023/07/07 11:49:23;;;;;;;6.30;4.60;;;;;;;;;;5092711;28;21012;-74
2023/07/07 11:51:53;;;;;;;5.63;3.90;;;;;;;;;;5097627;28;20471;-73
2023/07/07 11:54:29;;;;;;;4.77;3.90;;;;;;;;;;5096561;28;20859;-73
2023/07/07 11:57:03;;;;;;;5.47;4.53;;;;;;;;;;5087884;28;20865;-74
2023/07/07 11:59:39;;;;;;;4.37;3.90;;;;;;;;;;5087976;28;20538;-74
2023/07/07 12:02:14;;;;;;;3.90;3.50;;;;;;;;;;5086699;28;20477;-73
2023/07/07 12:04:43;;;;;;;4.57;4.17;;;;;;;;;;5113183;28;20480;-73
2023/07/07 12:07:14;;;;;;;4.50;3.93;;;;;;;;;;5112837;28;20809;-73
2023/07/07 12:09:45;;;;;;;4.83;3.70;;;;;;;;;;5112849;28;20460;-73
2023/07/07 12:12:16;;;;;;;4.87;3.47;;;;;;;;;;5112487;28;20452;-73
2023/07/07 12:14:47;;;;;;;4.27;3.83;;;;;;;;;;5092931;28;20460;-73
2023/07/07 12:17:19;;;;;;;5.47;4.10;;;;;;;;;;5071873;28;20440;-73
2023/07/07 12:19:48;;;;;;;4.60;4.17;;;;;;;;;;5072321;28;20475;-73
2023/07/07 12:22:17;;;;;;;4.50;3.80;;;;;;;;;;5072775;28;20821;-73
2023/07/07 12:24:48;;;;;;;5.13;4.60;;;;;;;;;;5072506;28;20455;-74
2023/07/07 12:27:18;;;;;;;6.30;4.70;;;;;;;;;;5072183;28;20959;-73
2023/07/07 12:29:47;;;;;;;5.67;4.80;;;;;;;;;;5072102;28;20458;-73
2023/07/07 12:32:14;;;;;;;5.73;4.17;;;;;;;;;;5072217;28;20460;-74
2023/07/07 12:34:42;;;;;;;4.67;3.80;;;;;;;;;;5072138;28;20463;-73
2023/07/07 12:37:14;;;;;;;5.03;4.53;;;;;;;;;;5072049;28;20582;-73
2023/07/07 12:39:52;;;;;;;4.10;3.70;;;;;;;;;;5076319;28;20553;-73
2023/07/07 12:42:30;;;;;;;7.10;4.20;;;;;;;;;;5077526;28;20505;-74
2023/07/07 12:44:58;;;;;;;5.27;4.77;;;;;;;;;;5084660;28;20457;-74
2023/07/07 12:47:30;;;;;;;5.03;4.00;;;;;;;;;;5084319;28;20447;-73
2023/07/07 12:49:58;;;;;;;4.30;3.53;;;;;;;;;;5087735;28;20462;-73
2023/07/07 12:52:25;;;;;;;4.27;3.67;;;;;;;;;;5084757;28;20463;-73
2023/07/07 12:54:54;;;;;;;3.83;3.43;;;;;;;;;;5082443;28;20447;-73
2023/07/07 12:57:24;;;;;;;4.67;4.17;;;;;;;;;;5077336;28;20447;-73
2023/07/07 12:59:53;;;;;;;5.50;5.00;;;;;;;;;;5094142;28;20455;-73
2023/07/07 13:02:21;;;;;;;4.47;4.07;;;;;;;;;;5092631;28;20470;-73
2023/07/07 13:04:53;;;;;;;4.37;3.97;;;;;;;;;;5088772;28;20454;-73
2023/07/07 13:07:21;;;;;;;7.50;4.03;;;;;;;;;;5089717;28;20470;-73
2023/07/07 13:09:52;;;;;;;5.30;4.23;;;;;;;;;;5090325;28;20825;-73
2023/07/07 13:12:37;;;;;;;6.07;4.33;;;;;;;;;;5091068;28;20447;-76
2023/07/07 13:15:07;;;;;;;5.53;4.00;;;;;;;;;;5091784;28;20802;-76
2023/07/07 13:17:34;;;;;;;5.10;4.03;;;;;;;;;;5091728;28;20943;-76
2023/07/07 13:20:03;;;;;;;6.90;4.20;;;;;;;;;;5092175;28;20473;-76
2023/07/07 13:22:33;;;;;;;4.70;4.13;;;;;;;;;;5092381;28;20458;-76
2023/07/07 13:25:00;;;;;;;8.73;4.40;;;;;;;;;;5092562;28;20447;-76
2023/07/07 13:27:27;;;;;;;5.10;4.03;;;;;;;;;;5094661;28;20446;-76
2023/07/07 13:29:57;;;;;;;6.47;4.40;;;;;;;;;;5095953;28;20462;-76
2023/07/07 13:32:30;;;;;;;5.80;3.93;;;;;;;;;;5095912;28;20450;-76
2023/07/07 13:34:59;;;;;;;4.10;3.70;;;;;;;;;;5095788;28;20480;-76
2023/07/07 13:37:27;;;;;;;5.73;4.37;;;;;;;;;;5096085;28;20459;-76
2023/07/07 13:39:54;;;;;;;7.57;4.37;;;;;;;;;;5095680;28;20454;-76
2023/07/07 13:42:24;;;;;;;7.33;4.53;;;;;;;;;;5095939;28;20997;-76
2023/07/07 13:45:01;;;;;;;5.90;4.07;;;;;;;;;;5095962;28;20451;-76
2023/07/07 13:47:31;;;;;;;7.13;5.10;;;;;;;;;;5095697;28;20455;-76
2023/07/07 13:50:01;;;;;;;5.70;5.10;;;;;;;;;;5095831;28;20439;-76
2023/07/07 13:52:29;;;;;;;6.50;5.27;;;;;;;;;;5095380;28;20549;-76
2023/07/07 13:54:57;;;;;;;7.33;5.07;;;;;;;;;;5095765;28;20931;-76
2023/07/07 13:57:26;;;;;;;6.93;5.23;;;;;;;;;;5095698;28;20854;-76
2023/07/07 13:59:53;;;;;;;6.83;5.13;;;;;;;;;;5095715;28;20454;-76
2023/07/07 14:02:20;;;;;;;6.20;4.70;;;;;;;;;;5095880;28;20493;-77
2023/07/07 14:04:52;;;;;;;5.63;3.87;;;;;;;;;;5095854;28;20455;-76
2023/07/07 14:07:21;;;;;;;6.83;5.20;;;;;;;;;;5095541;28;20504;-76
2023/07/07 14:09:49;;;;;;;5.53;4.47;;;;;;;;;;5095682;28;20813;-76
2023/07/07 14:12:17;;;;;;;5.67;4.10;;;;;;;;;;5095230;28;20939;-77
2023/07/07 14:14:45;;;;;;;4.20;3.50;;;;;;;;;;5095480;28;20439;-76
2023/07/07 14:17:15;;;;;;;4.60;4.20;;;;;;;;;;5095307;28;20842;-76
2023/07/07 14:19:48;;;;;;;5.03;4.47;;;;;;;;;;5094805;28;20458;-76
2023/07/07 14:22:16;;;;;;;9.83;5.13;;;;;;;;;;5095169;28;20471;-76
2023/07/07 14:24:43;;;;;;;6.70;4.30;;;;;;;;;;5095175;28;20477;-77
2023/07/07 14:27:13;;;;;;;13.40;3.90;;;;;;;;;;5094780;28;20462;-76
2023/07/07 14:29:41;;;;;;;3.77;3.37;;;;;;;;;;5095063;28;20458;-76
2023/07/07 14:32:12;;;;;;;4.87;4.30;;;;;;;;;;5094888;28;20463;-76
2023/07/07 14:34:47;;;;;;;8.00;4.80;;;;;;;;;;5094737;28;20439;-76
2023/07/07 14:37:22;;;;;;;4.97;3.63;;;;;;;;;;5094906;28;20953;-76
2023/07/07 14:39:50;;;;;;;12.40;4.50;;;;;;;;;;5094214;28;20434;-76
2023/07/07 14:42:21;;;;;;;3.90;3.50;;;;;;;;;;5094435;28;20478;-76
2023/07/07 14:44:49;;;;;;;4.33;3.57;;;;;;;;;;5094742;28;20461;-76
2023/07/07 14:47:20;;;;;;;5.37;4.20;;;;;;;;;;5094698;28;20923;-76
2023/07/07 14:49:47;;;;;;;4.13;3.70;;;;;;;;;;5094303;28;20455;-77
2023/07/07 14:52:18;;;;;;;6.10;4.00;;;;;;;;;;5094634;28;20531;-76
2023/07/07 14:54:46;;;;;;;5.40;4.33;;;;;;;;;;5094674;28;20807;-76
2023/07/07 14:57:16;;;;;;;4.77;4.27;;;;;;;;;;5094246;28;20453;-77